createdAt,value
2024-02-19T00:01:08.169Z,9.27
2024-02-19T00:03:35.999Z,9.42
2024-02-19T00:06:05.671Z,9.16
2024-02-19T00:08:33.306Z,9.37
2024-02-19T00:11:03.135Z,9.57
2024-02-19T00:13:31.141Z,9.38
2024-02-19T00:15:58.736Z,9.15
2024-02-19T00:18:27.116Z,9.41
2024-02-19T00:20:54.747Z,9.12
2024-02-19T00:23:22.356Z,9.21
2024-02-19T00:25:50.022Z,9.27
2024-02-19T00:28:19.053Z,9.32
2024-02-19T00:30:46.947Z,9.39
2024-02-19T00:33:14.777Z,9.24
2024-02-19T00:35:42.552Z,9.31
2024-02-19T00:38:10.786Z,9.41
2024-02-19T00:40:38.893Z,9.42
2024-02-19T00:43:06.786Z,9.42
2024-02-19T00:45:35.918Z,9.45
2024-02-19T00:48:03.831Z,9.22
2024-02-19T00:50:31.623Z,9.35
2024-02-19T00:52:59.298Z,9.48
2024-02-19T00:55:27.227Z,9.54
2024-02-19T00:57:54.974Z,9.38
2024-02-19T01:00:23.919Z,9.40
2024-02-19T01:02:52.994Z,9.26
2024-02-19T01:05:20.756Z,9.19
2024-02-19T01:07:48.433Z,9.49
2024-02-19T01:10:16.335Z,9.06
2024-02-19T01:12:44.023Z,9.10
2024-02-19T01:15:12.274Z,9.11
2024-02-19T01:17:39.997Z,9.29
2024-02-19T01:20:10.816Z,9.33
2024-02-19T01:22:40.020Z,9.21
2024-02-19T01:25:08.579Z,9.21
2024-02-19T01:27:36.310Z,9.27
2024-02-19T01:30:03.999Z,9.36
2024-02-19T01:32:31.706Z,9.34
2024-02-19T01:34:59.555Z,9.26
2024-02-19T01:37:28.691Z,9.41
2024-02-19T01:39:56.381Z,9.20
2024-02-19T01:42:24.128Z,9.33
2024-02-19T01:44:51.857Z,9.30
2024-02-19T01:47:20.145Z,9.20
2024-02-19T01:49:47.969Z,9.33
2024-02-19T01:52:16.233Z,9.25
2024-02-19T01:54:45.743Z,9.53
2024-02-19T01:57:13.839Z,9.54
2024-02-19T01:59:41.915Z,9.14
2024-02-19T02:02:10.826Z,9.18
2024-02-19T02:04:39.568Z,9.16
2024-02-19T02:07:07.603Z,9.49
2024-02-19T02:09:35.763Z,9.36
2024-02-19T02:12:05.144Z,9.45
2024-02-19T02:14:32.802Z,9.20
2024-02-19T02:17:00.539Z,9.16
2024-02-19T02:19:28.326Z,9.36
2024-02-19T02:21:56.268Z,9.28
2024-02-19T02:24:23.965Z,9.25
2024-02-19T02:26:52.992Z,8.93
2024-02-19T02:29:20.608Z,8.98
2024-02-19T02:31:48.336Z,8.94
2024-02-19T02:34:16.098Z,8.75
2024-02-19T02:36:43.823Z,8.86
2024-02-19T02:39:11.628Z,9.20
2024-02-19T02:41:39.266Z,9.06
2024-02-19T02:44:08.696Z,9.25
2024-02-19T02:46:36.479Z,9.12
2024-02-19T02:49:04.559Z,8.91
2024-02-19T02:51:32.916Z,8.81
2024-02-19T02:54:00.667Z,9.00
2024-02-19T02:56:28.327Z,8.79
2024-02-19T02:58:55.940Z,8.81
2024-02-19T03:01:29.466Z,8.58
2024-02-19T03:03:57.283Z,8.58
2024-02-19T03:06:25.066Z,8.64
2024-02-19T03:08:52.859Z,8.73
2024-02-19T03:11:20.622Z,8.63
2024-02-19T03:13:48.359Z,8.73
2024-02-19T03:16:17.740Z,8.64
2024-02-19T03:18:47.679Z,8.96
2024-02-19T03:21:17.171Z,8.71
2024-02-19T03:23:52.531Z,8.52
2024-02-19T03:26:34.786Z,8.37
2024-02-19T03:29:12.615Z,8.44
2024-02-19T03:31:40.380Z,8.45
2024-02-19T03:34:09.973Z,8.44
2024-02-19T03:39:05.906Z,8.45
2024-02-19T03:41:34.429Z,8.52
2024-02-19T03:44:02.031Z,8.37
2024-02-19T03:46:29.614Z,8.74
2024-02-19T03:48:57.400Z,8.60
2024-02-19T03:51:26.360Z,8.46
2024-02-19T03:53:55.464Z,8.29
2024-02-19T03:56:24.378Z,8.45
2024-02-19T03:58:52.572Z,8.48
2024-02-19T04:01:20.293Z,8.22
2024-02-19T04:03:47.952Z,8.55
2024-02-19T04:06:15.582Z,8.69
2024-02-19T04:08:44.516Z,8.23
2024-02-19T04:11:15.817Z,8.55
2024-02-19T04:13:43.372Z,8.62
2024-02-19T04:16:11.277Z,8.64
2024-02-19T04:18:38.996Z,8.40
2024-02-19T04:21:07.694Z,8.30
2024-02-19T04:23:36.441Z,8.53
2024-02-19T04:26:09.268Z,8.47
2024-02-19T04:28:39.819Z,8.17
2024-02-19T04:31:07.753Z,8.09
2024-02-19T04:33:37.443Z,8.26
2024-02-19T04:36:06.242Z,7.86
2024-02-19T04:38:35.258Z,8.05
2024-02-19T04:41:03.876Z,8.28
2024-02-19T04:43:33.260Z,8.12
2024-02-19T04:46:06.943Z,8.19
2024-02-19T04:48:37.512Z,7.99
2024-02-19T04:51:07.879Z,7.96
2024-02-19T04:53:35.887Z,7.84
2024-02-19T04:56:04.608Z,7.91
2024-02-19T04:58:33.718Z,8.16
2024-02-19T05:01:02.607Z,8.15
2024-02-19T05:03:30.263Z,7.71
2024-02-19T05:05:57.882Z,7.78
2024-02-19T05:08:25.484Z,7.92
2024-02-19T05:10:53.418Z,7.79
2024-02-19T05:13:21.096Z,8.32
2024-02-19T05:15:50.169Z,7.91
2024-02-19T05:18:17.922Z,8.26
2024-02-19T05:20:45.542Z,7.94
2024-02-19T05:23:13.155Z,7.81
2024-02-19T05:25:42.312Z,7.77
2024-02-19T05:28:10.621Z,7.81
2024-02-19T05:30:42.553Z,7.90
2024-02-19T05:33:14.052Z,8.12
2024-02-19T05:35:43.082Z,7.85
2024-02-19T05:38:13.178Z,7.96
2024-02-19T05:40:44.031Z,7.96
2024-02-19T05:43:13.811Z,8.09
2024-02-19T05:45:43.227Z,8.20
2024-02-19T05:48:12.932Z,8.08
2024-02-19T05:50:42.481Z,7.74
2024-02-19T05:53:13.531Z,8.13
2024-02-19T05:55:42.595Z,8.17
2024-02-19T05:58:10.839Z,7.98
2024-02-19T06:00:39.643Z,7.61
2024-02-19T06:03:07.731Z,7.94
2024-02-19T06:05:40.429Z,8.10
2024-02-19T06:08:09.238Z,7.97
2024-02-19T06:10:37.708Z,8.08
2024-02-19T06:13:06.414Z,7.94
2024-02-19T06:15:35.191Z,7.73
2024-02-19T06:18:03.138Z,8.18
2024-02-19T06:20:31.612Z,8.02
2024-02-19T06:23:00.977Z,7.95
2024-02-19T06:25:30.830Z,7.98
2024-02-19T06:27:59.445Z,7.63
2024-02-19T06:30:27.285Z,8.04
2024-02-19T06:32:55.407Z,8.11
2024-02-19T06:35:23.082Z,8.08
2024-02-19T06:37:50.980Z,8.21
2024-02-19T06:40:20.015Z,7.95
2024-02-19T06:42:47.657Z,7.99
2024-02-19T06:45:15.228Z,8.17
2024-02-19T06:47:43.238Z,8.19
2024-02-19T06:50:11.612Z,8.23
2024-02-19T06:52:44.312Z,8.00
2024-02-19T06:55:11.948Z,7.93
2024-02-19T06:57:40.880Z,8.36
2024-02-19T07:00:15.579Z,8.09
2024-02-19T07:02:45.827Z,8.00
2024-02-19T07:05:15.780Z,8.17
2024-02-19T07:07:44.424Z,7.84
2024-02-19T07:10:14.178Z,7.93
2024-02-19T07:12:43.841Z,7.89
2024-02-19T07:15:14.302Z,8.05
2024-02-19T07:17:42.722Z,7.70
2024-02-19T07:20:12.067Z,8.21
2024-02-19T07:22:41.264Z,8.11
2024-02-19T07:25:17.417Z,7.93
2024-02-19T07:27:51.792Z,7.86
2024-02-19T07:30:21.641Z,7.90
2024-02-19T07:32:51.857Z,7.85
2024-02-19T07:35:21.050Z,7.53
2024-02-19T07:37:49.112Z,8.15
2024-02-19T07:40:16.784Z,8.05
2024-02-19T07:46:33.698Z,7.82
2024-02-19T07:49:01.450Z,7.99
2024-02-19T07:51:29.187Z,8.18
2024-02-19T07:53:58.614Z,8.42
2024-02-19T07:56:26.233Z,8.21
2024-02-19T07:58:53.866Z,8.32
2024-02-19T08:01:21.481Z,8.39
2024-02-19T08:03:50.496Z,8.42
2024-02-19T08:06:18.141Z,8.46
2024-02-19T08:08:49.516Z,8.38
2024-02-19T08:11:19.731Z,8.54
2024-02-19T08:13:49.673Z,8.20
2024-02-19T08:16:26.315Z,8.52
2024-02-19T08:19:03.002Z,8.65
2024-02-19T08:21:32.760Z,8.39
2024-02-19T08:24:03.185Z,8.72
2024-02-19T08:26:32.949Z,8.70
2024-02-19T08:29:02.618Z,8.92
2024-02-19T08:31:32.596Z,8.74
2024-02-19T08:34:03.443Z,8.69
2024-02-19T08:36:35.379Z,8.79
2024-02-19T08:39:03.066Z,8.53
2024-02-19T08:41:31.999Z,8.76
2024-02-19T08:43:59.591Z,8.56
2024-02-19T08:46:27.631Z,8.52
2024-02-19T08:48:57.191Z,8.48
2024-02-19T08:51:26.357Z,8.76
2024-02-19T08:53:59.205Z,8.85
2024-02-19T08:56:28.544Z,9.12
2024-02-19T08:58:56.442Z,9.13
2024-02-19T09:01:27.310Z,9.65
2024-02-19T09:03:56.742Z,9.33
2024-02-19T09:06:26.440Z,9.83
2024-02-19T09:08:57.713Z,9.88
2024-02-19T09:11:28.285Z,9.58
2024-02-19T09:13:57.915Z,9.29
2024-02-19T09:16:26.882Z,9.16
2024-02-19T09:18:56.708Z,9.54
2024-02-19T09:21:27.875Z,9.81
2024-02-19T09:24:01.156Z,10.16
2024-02-19T09:26:30.102Z,10.09
2024-02-19T09:28:58.916Z,10.13
2024-02-19T09:31:28.792Z,9.80
2024-02-19T09:33:58.240Z,10.49
2024-02-19T09:36:29.215Z,10.58
2024-02-19T09:38:57.246Z,10.16
2024-02-19T09:41:29.927Z,10.42
2024-02-19T09:43:59.804Z,10.44
2024-02-19T09:46:28.032Z,10.78
2024-02-19T09:49:02.921Z,10.73
2024-02-19T09:51:37.395Z,10.39
2024-02-19T09:54:08.960Z,10.37
2024-02-19T09:56:36.683Z,10.35
2024-02-19T09:59:06.086Z,10.88
2024-02-19T10:01:34.114Z,11.08
2024-02-19T10:04:01.915Z,11.67
2024-02-19T10:06:35.687Z,11.53
2024-02-19T10:09:08.024Z,11.40
2024-02-19T10:11:34.719Z,12.22
2024-02-19T10:14:02.383Z,12.02
2024-02-19T10:16:30.317Z,12.04
2024-02-19T10:19:05.316Z,11.98
2024-02-19T10:21:34.453Z,12.11
2024-02-19T10:24:02.395Z,11.55
2024-02-19T10:26:30.020Z,11.60
2024-02-19T10:28:58.470Z,11.73
2024-02-19T10:31:26.726Z,11.54
2024-02-19T10:33:54.733Z,11.78
2024-02-19T10:36:24.034Z,11.97
2024-02-19T10:38:53.445Z,11.96
2024-02-19T10:41:24.429Z,11.80
2024-02-19T10:43:52.865Z,13.21
2024-02-19T10:46:22.855Z,12.99
2024-02-19T10:48:52.636Z,12.33
2024-02-19T10:51:20.810Z,12.23
2024-02-19T10:53:48.569Z,12.19
2024-02-19T10:56:19.561Z,12.40
2024-02-19T10:58:53.500Z,12.93
2024-02-19T11:01:21.341Z,12.72
2024-02-19T11:03:49.201Z,12.57
2024-02-19T11:06:17.550Z,12.55
2024-02-19T11:08:52.174Z,12.67
2024-02-19T11:11:25.497Z,12.59
2024-02-19T11:13:53.328Z,12.74
2024-02-19T11:16:21.340Z,13.05
2024-02-19T11:18:52.600Z,13.20
2024-02-19T11:21:21.626Z,12.78
2024-02-19T11:23:49.246Z,12.47
2024-02-19T11:26:16.893Z,12.32
2024-02-19T11:28:45.927Z,12.35
2024-02-19T11:31:15.234Z,12.39
2024-02-19T11:33:42.913Z,11.78
2024-02-19T11:36:10.611Z,12.04
2024-02-19T11:38:39.953Z,12.37
2024-02-19T11:41:07.658Z,13.00
2024-02-19T11:43:35.431Z,13.57
2024-02-19T11:46:04.961Z,13.44
2024-02-19T11:48:32.722Z,13.74
2024-02-19T11:51:00.811Z,12.76
2024-02-19T11:53:28.385Z,12.65
2024-02-19T11:56:00.967Z,12.57
2024-02-19T11:58:29.529Z,12.20
2024-02-19T12:00:57.641Z,12.06
2024-02-19T12:03:27.462Z,11.63
2024-02-19T12:05:58.496Z,11.94
2024-02-19T12:08:26.150Z,12.15
2024-02-19T12:10:55.646Z,12.32
2024-02-19T12:13:23.421Z,12.75
2024-02-19T12:15:51.448Z,12.49
2024-02-19T12:18:19.213Z,12.65
2024-02-19T12:20:48.959Z,12.92
2024-02-19T12:23:16.609Z,12.86
2024-02-19T12:25:44.263Z,12.51
2024-02-19T12:28:11.903Z,12.50
2024-02-19T12:30:39.461Z,12.27
2024-02-19T12:33:07.298Z,12.15
2024-02-19T12:35:36.064Z,11.74
2024-02-19T12:38:06.693Z,11.90
2024-02-19T12:40:34.302Z,12.32
2024-02-19T12:43:03.289Z,12.11
2024-02-19T12:45:30.913Z,11.85
2024-02-19T12:47:58.617Z,12.21
2024-02-19T12:50:26.460Z,12.30
2024-02-19T12:52:54.154Z,12.39
2024-02-19T12:55:23.270Z,12.31
2024-02-19T12:57:50.941Z,12.55
2024-02-19T13:00:19.079Z,12.33
2024-02-19T13:02:46.951Z,12.13
2024-02-19T13:05:15.064Z,12.20
2024-02-19T13:07:43.448Z,12.24
2024-02-19T13:10:11.663Z,11.82
2024-02-19T13:12:40.664Z,11.61
2024-02-19T13:15:08.584Z,11.70
2024-02-19T13:17:42.960Z,11.56
2024-02-19T13:20:16.283Z,11.87
2024-02-19T13:22:44.415Z,11.80
2024-02-19T13:25:12.121Z,11.55
2024-02-19T13:27:41.099Z,11.62
2024-02-19T13:30:10.619Z,11.74
2024-02-19T13:32:38.465Z,11.56
2024-02-19T13:35:11.131Z,11.68
2024-02-19T13:37:39.994Z,11.54
2024-02-19T13:40:10.722Z,11.26
2024-02-19T13:42:39.104Z,11.59
2024-02-19T13:45:10.489Z,11.84
2024-02-19T13:47:39.078Z,11.94
2024-02-19T13:50:07.995Z,11.79
2024-02-19T13:52:36.391Z,11.80
2024-02-19T13:55:04.163Z,12.04
2024-02-19T13:57:31.918Z,11.91
2024-02-19T14:00:00.403Z,11.84
2024-02-19T14:02:29.916Z,11.68
2024-02-19T14:04:57.746Z,11.90
2024-02-19T14:07:25.744Z,12.05
2024-02-19T14:09:53.493Z,11.81
2024-02-19T14:12:21.116Z,11.75
2024-02-19T14:14:48.758Z,12.04
2024-02-19T14:17:16.387Z,11.89
2024-02-19T14:19:45.441Z,11.75
2024-02-19T14:22:13.178Z,11.79
2024-02-19T14:24:41.879Z,11.81
2024-02-19T14:27:09.614Z,11.58
2024-02-19T14:29:37.207Z,11.59
2024-02-19T14:32:05.349Z,11.26
2024-02-19T14:34:34.041Z,11.29
2024-02-19T14:37:03.307Z,11.09
2024-02-19T14:39:31.527Z,11.25
2024-02-19T14:41:59.199Z,11.38
2024-02-19T14:44:26.772Z,11.36
2024-02-19T14:47:01.814Z,11.42
2024-02-19T14:49:34.223Z,11.30
2024-02-19T14:52:03.808Z,11.60
2024-02-19T14:54:31.559Z,11.75
2024-02-19T14:57:00.266Z,11.78
2024-02-19T14:59:29.198Z,11.71
2024-02-19T15:01:57.149Z,11.90
2024-02-19T15:04:24.954Z,12.33
2024-02-19T15:06:52.724Z,12.07
2024-02-19T15:09:22.608Z,12.06
2024-02-19T15:11:50.548Z,11.93
2024-02-19T15:14:19.849Z,12.09
2024-02-19T15:16:47.481Z,11.96
2024-02-19T15:19:15.227Z,12.11
2024-02-19T15:21:42.928Z,11.70
2024-02-19T15:24:10.751Z,11.91
2024-02-19T15:26:40.303Z,12.03
2024-02-19T15:29:08.503Z,11.78
2024-02-19T15:31:40.233Z,12.08
2024-02-19T15:34:08.512Z,11.92
2024-02-19T15:36:36.312Z,11.88
2024-02-19T15:39:03.949Z,12.04
2024-02-19T15:41:33.552Z,12.11
2024-02-19T15:44:05.355Z,11.95
2024-02-19T15:46:33.618Z,12.24
2024-02-19T15:49:01.846Z,12.24
2024-02-19T15:51:30.600Z,11.99
2024-02-19T15:53:58.260Z,11.42
2024-02-19T15:56:26.587Z,11.59
2024-02-19T15:58:54.412Z,11.88
2024-02-19T16:01:23.568Z,11.95
2024-02-19T16:03:53.361Z,12.15
2024-02-19T16:06:22.097Z,12.10
2024-02-19T16:08:49.817Z,12.06
2024-02-19T16:11:17.430Z,11.88
2024-02-19T16:13:45.839Z,11.74
2024-02-19T16:16:14.792Z,11.85
2024-02-19T16:18:44.088Z,11.65
2024-02-19T16:21:11.927Z,11.82
2024-02-19T16:23:42.260Z,11.65
2024-02-19T16:26:11.830Z,11.63
2024-02-19T16:28:41.775Z,11.72
2024-02-19T16:31:11.676Z,11.48
2024-02-19T16:33:39.732Z,11.46
2024-02-19T16:36:09.448Z,11.70
2024-02-19T16:38:39.062Z,11.51
2024-02-19T16:41:07.282Z,11.51
2024-02-19T16:43:35.855Z,11.59
2024-02-19T16:46:03.877Z,11.42
2024-02-19T16:48:33.685Z,11.38
2024-02-19T16:51:01.327Z,11.58
2024-02-19T16:53:30.252Z,11.09
2024-02-19T16:55:57.798Z,11.06
2024-02-19T16:58:25.434Z,11.00
2024-02-19T17:00:58.273Z,11.14
2024-02-19T17:03:26.250Z,11.16
2024-02-19T17:05:54.434Z,10.97
2024-02-19T17:08:26.734Z,10.94
2024-02-19T17:10:57.952Z,10.80
2024-02-19T17:13:25.715Z,10.67
2024-02-19T17:15:53.328Z,10.64
2024-02-19T17:18:21.089Z,10.62
2024-02-19T17:20:48.736Z,10.80
2024-02-19T17:23:18.685Z,10.24
2024-02-19T17:25:47.494Z,10.52
2024-02-19T17:28:16.691Z,10.55
2024-02-19T17:30:45.174Z,10.38
2024-02-19T17:33:12.859Z,9.88
2024-02-19T17:35:42.671Z,10.01
2024-02-19T17:38:12.566Z,10.35
2024-02-19T17:40:40.167Z,10.35
2024-02-19T17:43:08.285Z,10.19
2024-02-19T17:45:37.285Z,10.13
2024-02-19T17:48:05.894Z,10.22
2024-02-19T17:50:36.766Z,9.89
2024-02-19T17:53:04.439Z,9.91
2024-02-19T17:55:32.177Z,9.81
2024-02-19T17:57:59.885Z,9.79
2024-02-19T18:00:27.467Z,9.56
2024-02-19T18:02:57.714Z,9.57
2024-02-19T18:05:27.152Z,9.35
2024-02-19T18:07:54.804Z,9.70
2024-02-19T18:10:22.427Z,9.86
2024-02-19T18:12:50.160Z,9.69
2024-02-19T18:15:22.619Z,9.74
2024-02-19T18:17:51.542Z,9.35
2024-02-19T18:20:20.986Z,9.63
2024-02-19T18:22:48.666Z,9.68
2024-02-19T18:25:16.278Z,9.69
2024-02-19T18:27:43.901Z,9.57
2024-02-19T18:30:14.030Z,9.69
2024-02-19T18:32:42.688Z,9.58
2024-02-19T18:35:10.856Z,9.34
2024-02-19T18:37:39.993Z,9.55
2024-02-19T18:40:09.759Z,9.24
2024-02-19T18:42:39.073Z,9.38
2024-02-19T18:45:08.003Z,9.35
2024-02-19T18:47:35.652Z,9.47
2024-02-19T18:50:03.724Z,9.56
2024-02-19T18:52:32.835Z,9.25
2024-02-19T18:55:02.321Z,9.26
2024-02-19T18:57:29.911Z,9.45
2024-02-19T18:59:57.455Z,9.22
2024-02-19T19:02:25.011Z,9.30
2024-02-19T19:04:52.637Z,9.60
2024-02-19T19:07:22.312Z,9.25
2024-02-19T19:09:50.234Z,9.42
2024-02-19T19:12:19.418Z,9.48
2024-02-19T19:14:47.029Z,9.46
2024-02-19T19:17:15.202Z,9.47
2024-02-19T19:19:43.605Z,9.54
2024-02-19T19:22:11.887Z,9.50
2024-02-19T19:24:43.062Z,9.28
2024-02-19T19:27:10.878Z,9.36
2024-02-19T19:29:39.800Z,9.18
2024-02-19T19:32:07.768Z,8.76
2024-02-19T19:34:35.440Z,8.88
2024-02-19T19:37:03.065Z,8.92
2024-02-19T19:39:30.706Z,8.90
2024-02-19T19:41:58.306Z,8.89
2024-02-19T19:44:25.915Z,8.86
2024-02-19T19:46:54.852Z,8.63
2024-02-19T19:49:23.352Z,8.67
2024-02-19T19:51:51.150Z,8.88
2024-02-19T19:54:18.795Z,8.61
2024-02-19T19:56:46.364Z,8.77
2024-02-19T19:59:14.148Z,8.53
2024-02-19T20:01:41.912Z,8.58
2024-02-19T20:04:10.961Z,8.61
2024-02-19T20:06:39.699Z,8.93
2024-02-19T20:09:09.182Z,8.85
2024-02-19T20:11:36.833Z,8.91
2024-02-19T20:14:05.020Z,8.83
2024-02-19T20:16:36.445Z,9.14
2024-02-19T20:19:04.508Z,9.14
2024-02-19T20:21:33.575Z,9.03
2024-02-19T20:24:02.200Z,8.86
2024-02-19T20:26:30.071Z,8.84
2024-02-19T20:28:57.683Z,8.65
2024-02-19T20:31:25.385Z,8.69
2024-02-19T20:33:53.688Z,8.95
2024-02-19T20:36:21.748Z,8.66
2024-02-19T20:38:50.726Z,8.84
2024-02-19T20:41:18.352Z,8.58
2024-02-19T20:43:45.942Z,8.32
2024-02-19T20:46:14.042Z,8.42
2024-02-19T20:48:41.812Z,8.28
2024-02-19T20:51:09.428Z,8.43
2024-02-19T20:53:37.049Z,8.27
2024-02-19T20:56:06.562Z,8.47
2024-02-19T20:58:34.350Z,8.37
2024-02-19T21:01:02.140Z,8.24
2024-02-19T21:03:35.921Z,8.38
2024-02-19T21:06:10.441Z,8.25
2024-02-19T21:08:38.064Z,8.41
2024-02-19T21:11:09.073Z,8.72
2024-02-19T21:13:38.802Z,8.57
2024-02-19T21:16:07.786Z,8.22
2024-02-19T21:18:42.900Z,8.40
2024-02-19T21:21:22.150Z,8.26
2024-02-19T21:23:57.703Z,8.42
2024-02-19T21:26:29.004Z,8.53
2024-02-19T21:28:56.794Z,8.32
2024-02-19T21:31:24.852Z,8.35
2024-02-19T21:33:52.863Z,8.42
2024-02-19T21:36:20.682Z,8.60
2024-02-19T21:38:49.503Z,8.42
2024-02-19T21:41:17.539Z,8.48
2024-02-19T21:43:46.761Z,8.15
2024-02-19T21:46:14.694Z,8.33
2024-02-19T21:48:43.672Z,8.37
2024-02-19T21:51:11.345Z,8.28
2024-02-19T21:53:38.957Z,8.14
2024-02-19T21:56:07.252Z,8.15
2024-02-19T21:58:34.972Z,8.06
2024-02-19T22:01:05.092Z,8.47
2024-02-19T22:03:33.093Z,8.37
2024-02-19T22:06:01.228Z,8.58
2024-02-19T22:08:28.948Z,8.61
2024-02-19T22:10:56.658Z,8.45
2024-02-19T22:13:24.416Z,8.36
2024-02-19T22:15:54.999Z,8.41
2024-02-19T22:18:25.375Z,8.04
2024-02-19T22:20:53.581Z,8.26
2024-02-19T22:23:21.332Z,8.15
2024-02-19T22:25:49.367Z,8.43
2024-02-19T22:28:17.663Z,8.51
2024-02-19T22:30:45.382Z,8.42
2024-02-19T22:33:13.207Z,8.08
2024-02-19T22:35:42.218Z,8.32
2024-02-19T22:38:09.863Z,8.14
2024-02-19T22:40:37.713Z,8.24
2024-02-19T22:43:10.328Z,8.09
2024-02-19T22:45:38.524Z,8.18
2024-02-19T22:48:09.816Z,8.14
2024-02-19T22:50:38.607Z,7.98
2024-02-19T22:53:07.710Z,7.96
2024-02-19T22:55:35.422Z,8.02
2024-02-19T22:58:03.745Z,8.18
2024-02-19T23:00:36.032Z,7.84
2024-02-19T23:03:04.531Z,8.12
2024-02-19T23:05:32.485Z,8.29
2024-02-19T23:08:01.667Z,8.11
2024-02-19T23:10:31.031Z,8.27
2024-02-19T23:12:58.908Z,8.01
2024-02-19T23:15:26.739Z,7.83
2024-02-19T23:17:54.705Z,8.20
2024-02-19T23:20:22.675Z,7.91
2024-02-19T23:22:50.393Z,7.73
2024-02-19T23:25:18.428Z,8.10
2024-02-19T23:27:47.561Z,8.25
2024-02-19T23:30:15.418Z,7.81
2024-02-19T23:32:43.212Z,7.93
2024-02-19T23:35:10.925Z,7.90
2024-02-19T23:37:38.894Z,7.91
2024-02-19T23:40:13.698Z,7.75
2024-02-19T23:42:41.323Z,7.99
2024-02-19T23:45:12.412Z,7.60
2024-02-19T23:47:40.692Z,7.48
2024-02-19T23:50:10.439Z,7.47
2024-02-19T23:52:40.471Z,7.67
2024-02-19T23:55:10.014Z,7.77
2024-02-19T23:57:38.678Z,7.53
